Time;durP1;ratioP1;P1;durP2;ratioP2;P2;SDS_P1;SDS_P2;PMS_P1;PMS_P2;Temp;Humidity;BMP_temperature;BMP_pressure;BME280_temperature;BME280_humidity;BME280_pressure;Samples;Min_cycle;Max_cycle;Signal;HPM_P1;HPM_P2
2021/09/05 00:01:58;;;;;;;14.10;9.83;;;;;;;13.26;100.00;96404.25;5079070;28;20090;-80
2021/09/05 00:04:24;;;;;;;14.13;10.07;;;;;;;13.18;100.00;96402.44;5079443;28;20040;-80
2021/09/05 00:06:50;;;;;;;16.30;10.60;;;;;;;13.13;100.00;96396.81;5066599;28;20078;-80
2021/09/05 00:09:16;;;;;;;13.53;10.33;;;;;;;13.08;100.00;96398.34;5071313;28;20485;-80
2021/09/05 00:11:41;;;;;;;17.87;10.80;;;;;;;13.09;100.00;96397.34;5084711;28;20032;-79
2021/09/05 00:14:07;;;;;;;17.20;10.73;;;;;;;13.10;100.00;96404.28;5083049;28;20055;-80
2021/09/05 00:16:33;;;;;;;14.40;11.13;;;;;;;13.14;100.00;96395.81;5057583;28;20048;-81
2021/09/05 00:18:59;;;;;;;13.23;10.10;;;;;;;13.18;100.00;96404.25;5056056;28;20503;-80
2021/09/05 00:21:25;;;;;;;16.00;11.00;;;;;;;13.10;100.00;96404.28;5072959;28;20899;-80
2021/09/05 00:23:51;;;;;;;15.50;12.03;;;;;;;12.93;100.00;96406.97;5056111;28;20067;-80
2021/09/05 00:26:17;;;;;;;14.30;11.20;;;;;;;12.88;100.00;96405.84;5069813;28;20067;-80
2021/09/05 00:28:43;;;;;;;14.70;11.67;;;;;;;12.79;100.00;96405.03;5050989;28;20386;-80
2021/09/05 00:31:09;;;;;;;16.50;10.67;;;;;;;12.75;100.00;96398.44;5071139;28;20028;-79
2021/09/05 00:33:35;;;;;;;14.23;10.33;;;;;;;12.78;100.00;96398.09;5050799;28;20080;-80
2021/09/05 00:36:04;;;;;;;14.23;9.60;;;;;;;12.73;100.00;96400.41;5069740;28;20155;-79
2021/09/05 00:38:29;;;;;;;16.17;10.30;;;;;;;12.70;100.00;96395.47;5071579;28;20095;-80
2021/09/05 00:40:55;;;;;;;15.77;10.27;;;;;;;12.79;100.00;96397.09;5051180;28;20135;-79
2021/09/05 00:43:21;;;;;;;12.43;9.80;;;;;;;12.82;100.00;96396.78;5058940;28;20489;-79
2021/09/05 00:45:47;;;;;;;14.00;11.10;;;;;;;12.82;100.00;96391.50;5072609;28;20056;-80
2021/09/05 00:48:12;;;;;;;16.23;12.27;;;;;;;12.81;100.00;96397.78;5069892;28;20468;-78
2021/09/05 00:50:38;;;;;;;16.70;12.53;;;;;;;12.52;100.00;96392.22;5056399;28;20478;-80
2021/09/05 00:53:05;;;;;;;15.17;11.30;;;;;;;12.39;100.00;96398.81;5059959;28;20378;-81
2021/09/05 00:55:36;;;;;;;15.13;12.43;;;;;;;12.35;100.00;96397.50;5057388;28;20028;-80
2021/09/05 00:58:06;;;;;;;15.40;11.33;;;;;;;12.33;100.00;96393.38;5061247;28;20062;-80
2021/09/05 01:00:34;;;;;;;16.23;11.83;;;;;;;12.35;100.00;96404.59;5069178;28;20028;-80
2021/09/05 01:03:04;;;;;;;15.03;11.30;;;;;;;12.40;100.00;96403.09;5050604;28;20028;-80
2021/09/05 01:05:33;;;;;;;15.77;11.03;;;;;;;12.46;100.00;96399.81;5051553;28;20764;-79
2021/09/05 01:07:59;;;;;;;18.23;10.97;;;;;;;12.44;100.00;96400.94;5081152;28;20020;-80
2021/09/05 01:10:26;;;;;;;14.47;11.80;;;;;;;12.29;100.00;96402.63;5070153;28;20036;-81
2021/09/05 01:12:52;;;;;;;14.30;10.83;;;;;;;12.31;100.00;96411.19;5073295;28;20552;-80
2021/09/05 01:15:17;;;;;;;15.17;11.87;;;;;;;12.26;100.00;96404.59;5070759;28;20124;-80
2021/09/05 01:17:44;;;;;;;17.00;12.13;;;;;;;12.09;100.00;96410.03;5065812;28;20111;-80
2021/09/05 01:20:29;;;;;;;15.10;10.97;;;;;;;11.93;100.00;96406.38;5068860;28;20110;-80
2021/09/05 01:23:17;;;;;;;14.67;9.87;;;;;;;11.89;100.00;96402.44;5077962;28;20062;-81
2021/09/05 01:26:12;;;;;;;14.70;9.43;;;;;;;11.87;100.00;96403.59;5040659;28;20492;-80
2021/09/05 01:28:57;;;;;;;14.90;9.70;;;;;;;11.93;100.00;96410.84;5076872;28;20144;-80
2021/09/05 01:31:56;;;;;;;13.17;9.73;;;;;;;11.92;100.00;96417.13;5070951;28;20040;-80
2021/09/05 01:34:40;;;;;;;12.53;9.70;;;;;;;11.89;100.00;96420.06;5079797;28;20071;-79
2021/09/05 01:37:35;;;;;;;13.53;9.83;;;;;;;11.81;100.00;96423.50;5036647;28;20048;-80
2021/09/05 01:40:30;;;;;;;13.27;9.03;;;;;;;11.76;100.00;96423.97;5068750;28;20418;-80
2021/09/05 01:43:14;;;;;;;12.23;8.97;;;;;;;11.78;100.00;96421.19;5068271;28;20070;-80
2021/09/05 01:45:59;;;;;;;14.43;8.87;;;;;;;11.79;100.00;96422.81;5063574;28;20473;-80
2021/09/05 01:48:51;;;;;;;10.57;8.10;;;;;;;11.76;100.00;96420.50;5073718;28;20032;-80
2021/09/05 01:51:40;;;;;;;13.80;9.57;;;;;;;11.72;100.00;96425.28;5067052;28;20047;-80
2021/09/05 01:54:44;;;;;;;12.37;8.50;;;;;;;11.70;100.00;96421.16;5024996;28;20042;-80
2021/09/05 01:57:28;;;;;;;12.27;9.53;;;;;;;11.68;100.00;96420.50;5052926;28;20067;-80
2021/09/05 02:00:13;;;;;;;12.10;8.97;;;;;;;11.72;100.00;96419.19;5075626;28;20603;-81
2021/09/05 02:02:44;;;;;;;12.23;9.40;;;;;;;11.60;100.00;96423.09;5075699;28;20087;-80
2021/09/05 02:05:41;;;;;;;12.93;9.10;;;;;;;11.62;100.00;96421.16;5056054;28;20060;-80
2021/09/05 02:08:42;;;;;;;13.37;9.50;;;;;;;11.61;100.00;96424.78;5067082;28;20052;-80
2021/09/05 02:11:31;;;;;;;12.80;9.47;;;;;;;11.56;100.00;96420.78;5062139;28;20032;-81
2021/09/05 02:14:29;;;;;;;13.23;8.93;;;;;;;11.63;100.00;96428.88;5048661;28;20032;-80
2021/09/05 02:17:10;;;;;;;13.47;9.93;;;;;;;11.59;100.00;96426.72;5057473;28;20121;-80
2021/09/05 02:19:52;;;;;;;13.97;9.90;;;;;;;11.57;100.00;96425.09;5077597;28;20063;-80
2021/09/05 02:22:36;;;;;;;14.50;9.97;;;;;;;11.37;100.00;96428.97;5065946;28;20063;-80
2021/09/05 02:25:19;;;;;;;14.53;10.50;;;;;;;11.33;100.00;96428.47;5051088;28;20195;-81
2021/09/05 02:28:17;;;;;;;13.60;9.83;;;;;;;11.33;100.00;96428.47;5043268;28;20063;-80
2021/09/05 02:31:09;;;;;;;12.53;10.13;;;;;;;11.36;100.00;96442.28;5037998;28;20049;-80
2021/09/05 02:34:01;;;;;;;13.20;10.13;;;;;;;11.31;100.00;96442.78;5075657;28;20039;-80
2021/09/05 02:36:52;;;;;;;13.30;9.57;;;;;;;11.32;100.00;96439.16;5044245;28;20691;-81
2021/09/05 02:39:43;;;;;;;15.87;9.23;;;;;;;11.37;100.00;96434.25;5053303;28;20037;-80
2021/09/05 02:42:28;;;;;;;13.83;9.93;;;;;;;11.30;100.00;96441.09;5078276;28;20047;-80
2021/09/05 02:45:19;;;;;;;14.23;9.90;;;;;;;11.27;100.00;96439.63;5075136;28;20036;-81
2021/09/05 02:48:20;;;;;;;15.17;10.20;;;;;;;11.21;100.00;96439.44;5035706;28;20044;-80
2021/09/05 02:51:04;;;;;;;14.57;9.97;;;;;;;11.24;100.00;96439.94;5067577;28;20066;-79
2021/09/05 02:53:30;;;;;;;11.70;8.67;;;;;;;11.31;100.00;96434.88;5069315;28;20101;-80
2021/09/05 02:56:14;;;;;;;13.50;10.30;;;;;;;11.22;100.00;96436.63;5063948;28;20028;-80
2021/09/05 02:59:05;;;;;;;11.77;9.23;;;;;;;11.26;100.00;96440.59;5079892;28;20114;-80
2021/09/05 03:01:58;;;;;;;11.93;9.00;;;;;;;11.30;100.00;96443.75;5083606;28;20063;-80
2021/09/05 03:04:29;;;;;;;11.57;8.45;;;;;;;11.28;100.00;96443.09;5074584;28;20040;-80
2021/09/05 03:07:26;;;;;;;12.47;8.97;;;;;;;11.31;100.00;96445.41;5061468;28;20047;-80
2021/09/05 03:10:15;;;;;;;13.07;8.53;;;;;;;11.35;100.00;96446.72;5079874;28;20036;-80
2021/09/05 03:12:57;;;;;;;9.40;6.25;;;;;;;11.33;100.00;96443.41;5057505;28;20548;-80
2021/09/05 03:15:54;;;;;;;12.87;9.03;;;;;;;11.26;100.00;96443.22;5057657;28;20044;-80
2021/09/05 03:18:39;;;;;;;11.50;8.23;;;;;;;11.23;100.00;96438.31;5076115;28;20154;-80
2021/09/05 03:21:20;;;;;;;13.30;9.27;;;;;;;11.15;100.00;96434.81;5065266;28;20028;-80
2021/09/05 03:24:06;;;;;;;12.10;9.10;;;;;;;11.14;100.00;96441.06;5080480;28;20047;-80
2021/09/05 03:26:58;;;;;;;12.20;8.37;;;;;;;11.20;100.00;96449.16;5078693;28;20044;-80
2021/09/05 03:29:50;;;;;;;12.37;9.30;;;;;;;11.19;100.00;96436.13;5073567;28;20041;-80
2021/09/05 03:32:42;;;;;;;11.87;8.77;;;;;;;11.16;100.00;96450.44;5057782;28;20044;-80
2021/09/05 03:35:26;;;;;;;11.30;8.00;;;;;;;11.12;100.00;96448.28;5071930;28;20038;-80
2021/09/05 03:38:11;;;;;;;11.47;8.70;;;;;;;11.12;100.00;96443.84;5072516;28;20097;-80
2021/09/05 03:40:56;;;;;;;11.27;8.40;;;;;;;11.05;100.00;96441.00;5077333;28;20147;-80
2021/09/05 03:43:41;;;;;;;13.67;9.17;;;;;;;11.02;100.00;96443.13;5070245;28;20036;-80
2021/09/05 03:46:39;;;;;;;12.97;8.20;;;;;;;11.01;100.00;96438.84;5028951;28;20029;-80
2021/09/05 03:49:05;;;;;;;12.20;9.17;;;;;;;10.97;100.00;96446.22;5071464;28;20037;-80
2021/09/05 03:51:32;;;;;;;11.20;7.90;;;;;;;10.94;100.00;96445.72;5055515;28;20035;-80
2021/09/05 03:53:58;;;;;;;12.20;9.00;;;;;;;10.89;100.00;96451.44;5072836;28;20492;-80
2021/09/05 03:56:24;;;;;;;11.50;7.80;;;;;;;10.96;100.00;96444.56;5075181;28;20028;-79
2021/09/05 03:58:54;;;;;;;12.63;7.87;;;;;;;11.07;100.00;96446.13;5081679;28;20452;-80
2021/09/05 04:01:22;;;;;;;11.57;8.63;;;;;;;11.04;100.00;96455.16;5069949;28;20041;-80
2021/09/05 04:03:58;;;;;;;10.90;8.20;;;;;;;11.04;100.00;96455.16;5054955;28;20020;-80
2021/09/05 04:06:24;;;;;;;13.90;8.03;;;;;;;11.11;100.00;96452.72;5071869;28;20505;-80
2021/09/05 04:08:51;;;;;;;12.13;8.20;;;;;;;11.10;100.00;96453.72;5076161;28;20029;-80
2021/09/05 04:11:17;;;;;;;15.13;8.93;;;;;;;10.96;100.00;96449.81;5074515;28;20100;-80
2021/09/05 04:13:43;;;;;;;13.00;8.93;;;;;;;10.97;100.00;96448.88;5060327;28;20028;-80
2021/09/05 04:16:09;;;;;;;14.83;8.93;;;;;;;11.04;100.00;96449.88;5055737;28;20040;-80
2021/09/05 04:18:34;;;;;;;12.23;8.87;;;;;;;11.07;100.00;96459.28;5054201;28;20032;-79
2021/09/05 04:21:00;;;;;;;12.33;9.03;;;;;;;11.08;100.00;96463.56;5074832;28;20072;-80
2021/09/05 04:23:26;;;;;;;13.37;8.30;;;;;;;11.11;100.00;96465.06;5079207;28;20428;-80
2021/09/05 04:25:51;;;;;;;12.23;8.63;;;;;;;11.12;100.00;96459.63;5076517;28;20074;-80
2021/09/05 04:28:17;;;;;;;11.67;8.40;;;;;;;11.12;100.00;96459.63;5074139;28;20035;-80
2021/09/05 04:30:43;;;;;;;12.50;8.77;;;;;;;11.10;100.00;96464.25;5072239;28;20040;-80
2021/09/05 04:33:10;;;;;;;11.20;8.40;;;;;;;11.05;100.00;96464.69;5060963;28;20533;-80
2021/09/05 04:35:36;;;;;;;11.17;7.47;;;;;;;11.06;100.00;96462.88;5077635;28;20143;-80
2021/09/05 04:38:01;;;;;;;10.87;8.03;;;;;;;11.06;100.00;96474.22;5055022;28;20517;-79
2021/09/05 04:40:27;;;;;;;12.13;7.83;;;;;;;11.06;100.00;96478.66;5070722;28;20028;-80
2021/09/05 04:42:53;;;;;;;11.03;8.50;;;;;;;11.01;100.00;96484.41;5066198;28;20024;-80
2021/09/05 04:45:18;;;;;;;11.20;7.70;;;;;;;11.00;100.00;96484.56;5067600;28;20482;-80
2021/09/05 04:47:44;;;;;;;12.93;9.80;;;;;;;10.98;100.00;96481.25;5074409;28;20027;-80
2021/09/05 04:50:10;;;;;;;11.97;8.23;;;;;;;10.95;100.00;96484.22;5060908;28;20054;-80
2021/09/05 04:52:36;;;;;;;10.77;7.67;;;;;;;10.97;100.00;96485.72;5070556;28;20017;-80
2021/09/05 04:55:02;;;;;;;11.90;8.03;;;;;;;10.96;100.00;96491.09;5071792;28;20024;-80
2021/09/05 04:57:28;;;;;;;10.80;7.37;;;;;;;10.93;100.00;96494.91;5071945;28;20025;-79
2021/09/05 04:59:53;;;;;;;10.67;7.37;;;;;;;10.90;100.00;96497.84;5061837;28;20039;-80
2021/09/05 05:02:19;;;;;;;11.60;7.60;;;;;;;10.90;100.00;96505.72;5050794;28;20051;-80
2021/09/05 05:04:45;;;;;;;12.70;7.70;;;;;;;10.91;100.00;96502.09;5047454;28;20029;-80
2021/09/05 05:07:10;;;;;;;10.70;7.17;;;;;;;10.93;100.00;96510.69;5054559;28;20020;-80
2021/09/05 05:09:43;;;;;;;11.73;7.57;;;;;;;10.95;100.00;96518.41;5056832;28;20082;-79
2021/09/05 05:12:10;;;;;;;14.70;7.38;;;;;;;10.98;100.00;96521.56;5076507;28;20401;-80
2021/09/05 05:14:36;;;;;;;12.57;7.57;;;;;;;11.00;100.00;96518.75;5069291;28;20033;-80
2021/09/05 05:17:02;;;;;;;11.97;7.30;;;;;;;11.05;100.00;96519.13;5055727;28;20028;-80
2021/09/05 05:19:27;;;;;;;11.37;7.30;;;;;;;11.20;100.00;96520.22;5070002;28;20412;-79
2021/09/05 05:21:53;;;;;;;11.13;7.63;;;;;;;11.43;100.00;96528.38;5055822;28;20028;-80
2021/09/05 05:24:18;;;;;;;12.20;7.53;;;;;;;11.52;100.00;96527.44;5047190;28;20486;-80
2021/09/05 05:26:44;;;;;;;10.23;6.70;;;;;;;11.85;100.00;96527.63;5051021;28;20139;-78
2021/09/05 05:29:10;;;;;;;10.37;7.07;;;;;;;12.11;100.00;96524.06;5057893;28;20020;-80
2021/09/05 05:31:35;;;;;;;10.70;7.20;;;;;;;12.02;100.00;96524.03;5072656;28;20436;-80
2021/09/05 05:34:01;;;;;;;10.40;7.23;;;;;;;11.94;100.00;96534.56;5071374;28;20108;-80
2021/09/05 05:36:27;;;;;;;10.60;7.67;;;;;;;11.89;100.00;96534.22;5063234;28;20028;-79
2021/09/05 05:38:52;;;;;;;8.30;6.17;;;;;;;12.32;100.00;96529.69;5056208;28;20032;-81
2021/09/05 05:41:19;;;;;;;11.17;7.50;;;;;;;12.21;100.00;96527.38;5071802;28;20040;-80
2021/09/05 05:43:45;;;;;;;10.93;8.27;;;;;;;12.44;100.00;96533.69;5057156;28;20023;-80
2021/09/05 05:46:11;;;;;;;10.67;7.30;;;;;;;12.74;97.68;96524.28;5070100;28;20683;-80
2021/09/05 05:48:36;;;;;;;11.30;7.43;;;;;;;12.96;96.88;96532.50;5051837;28;20313;-80
2021/09/05 05:51:02;;;;;;;11.77;7.17;;;;;;;13.19;96.16;96532.66;5053291;28;20453;-80
2021/09/05 05:53:28;;;;;;;9.47;6.70;;;;;;;13.42;94.21;96527.50;5076479;28;20021;-80
2021/09/05 05:55:54;;;;;;;11.57;7.63;;;;;;;13.16;95.83;96530.34;5075697;28;20116;-80
2021/09/05 05:58:21;;;;;;;11.33;7.37;;;;;;;13.52;94.35;96533.44;5069439;28;20554;-81
2021/09/05 06:00:47;;;;;;;8.80;6.60;;;;;;;13.49;94.67;96525.03;5075493;28;20032;-80
2021/09/05 06:03:13;;;;;;;10.60;7.53;;;;;;;13.97;92.82;96523.97;5063494;28;20020;-82
2021/09/05 06:05:40;;;;;;;11.83;7.70;;;;;;;14.07;91.44;96521.13;5061325;28;20089;-80
2021/09/05 06:08:07;;;;;;;10.83;7.43;;;;;;;14.21;90.48;96533.59;5055415;28;20486;-81
2021/09/05 06:10:33;;;;;;;11.23;6.63;;;;;;;14.34;90.08;96525.09;5085233;28;20049;-80
2021/09/05 06:12:59;;;;;;;9.73;6.70;;;;;;;14.45;89.41;96526.50;5086452;28;20027;-80
2021/09/05 06:15:25;;;;;;;9.00;6.60;;;;;;;14.83;87.38;96522.94;5071034;28;20040;-80
2021/09/05 06:17:51;;;;;;;13.13;7.47;;;;;;;15.12;85.36;96529.28;5050966;28;20025;-80
2021/09/05 06:20:17;;;;;;;10.07;6.53;;;;;;;15.29;85.75;96525.50;5076597;28;20044;-81
2021/09/05 06:22:43;;;;;;;10.00;6.00;;;;;;;15.69;83.84;96527.88;5071637;28;20095;-80
2021/09/05 06:25:09;;;;;;;9.00;6.23;;;;;;;16.13;81.44;96526.97;5065812;28;20127;-79
2021/09/05 06:27:35;;;;;;;9.80;6.10;;;;;;;16.34;79.77;96526.22;5044946;28;20121;-80
2021/09/05 06:30:00;;;;;;;11.00;6.40;;;;;;;16.33;79.59;96524.56;5055389;28;20194;-79
2021/09/05 06:32:27;;;;;;;9.13;5.90;;;;;;;16.71;78.00;96522.50;5054435;28;20553;-80
2021/09/05 06:34:53;;;;;;;9.35;6.18;;;;;;;16.76;78.56;96528.06;5071296;28;20039;-80
2021/09/05 06:37:19;;;;;;;9.02;6.13;;;;;;;17.13;76.96;96528.78;5060743;28;20024;-79
2021/09/05 06:39:45;;;;;;;10.60;6.35;;;;;;;17.15;77.12;96527.59;5077406;28;20708;-80
2021/09/05 06:42:10;;;;;;;8.68;6.10;;;;;;;17.31;76.16;96529.13;5067207;28;20153;-80
2021/09/05 06:44:37;;;;;;;8.45;5.68;;;;;;;17.44;75.47;96523.91;5066491;28;20032;-79
2021/09/05 06:47:02;;;;;;;8.68;6.28;;;;;;;17.96;72.95;96536.88;5046475;28;20088;-80
2021/09/05 06:49:28;;;;;;;8.38;6.07;;;;;;;18.17;73.58;96534.09;5074589;28;20451;-80
2021/09/05 06:51:54;;;;;;;9.25;5.93;;;;;;;18.26;72.25;96527.56;5064484;28;20024;-80
2021/09/05 06:54:20;;;;;;;7.88;5.82;;;;;;;18.61;71.04;96536.28;5053280;28;20043;-80
2021/09/05 06:56:45;;;;;;;11.48;6.10;;;;;;;19.35;69.02;96529.16;5045278;28;20549;-80
2021/09/05 06:59:11;;;;;;;9.00;5.97;;;;;;;19.21;69.75;96530.19;5069476;28;20036;-80
2021/09/05 07:01:37;;;;;;;8.77;6.20;;;;;;;19.73;68.19;96534.66;5053022;28;20020;-80
2021/09/05 07:04:02;;;;;;;8.98;6.05;;;;;;;20.11;66.16;96530.41;5067974;28;20545;-80
2021/09/05 07:06:28;;;;;;;10.80;6.20;;;;;;;19.86;67.32;96532.97;5077049;28;20031;-80
2021/09/05 07:08:54;;;;;;;8.23;6.07;;;;;;;20.19;65.86;96532.84;5049166;28;20025;-80
2021/09/05 07:11:20;;;;;;;10.52;5.65;;;;;;;19.91;66.53;96525.16;5076522;28;20092;-80
2021/09/05 07:13:45;;;;;;;10.30;6.60;;;;;;;19.35;68.21;96531.81;5059163;28;20075;-81
2021/09/05 07:16:14;;;;;;;9.65;5.95;;;;;;;19.57;67.33;96528.91;5057072;28;20023;-80
2021/09/05 07:18:41;;;;;;;8.02;5.45;;;;;;;20.05;67.37;96532.06;5066066;28;21782;-80
2021/09/05 07:21:08;;;;;;;10.15;6.65;;;;;;;20.98;64.47;96538.78;5071341;28;20396;-80
2021/09/05 07:23:34;;;;;;;8.27;6.30;;;;;;;21.09;61.93;96540.72;5068520;28;20448;-80
2021/09/05 07:26:02;;;;;;;7.78;5.20;;;;;;;21.17;60.85;96540.47;5077369;28;20141;-81
2021/09/05 07:28:32;;;;;;;8.90;5.97;;;;;;;21.26;61.34;96538.34;5067375;28;20063;-80
2021/09/05 07:30:59;;;;;;;7.82;5.53;;;;;;;21.34;61.05;96538.91;5076081;28;20021;-81
2021/09/05 07:33:24;;;;;;;7.57;5.70;;;;;;;21.27;60.50;96540.00;5067031;28;20253;-80
2021/09/05 07:35:50;;;;;;;9.68;5.53;;;;;;;22.67;57.37;96540.09;5068332;28;20020;-80
2021/09/05 07:38:16;;;;;;;9.00;6.03;;;;;;;22.29;59.34;96541.19;5068247;28;20020;-80
2021/09/05 07:40:41;;;;;;;8.52;5.57;;;;;;;22.13;59.88;96549.81;5050345;28;20044;-80
2021/09/05 07:43:07;;;;;;;8.80;5.72;;;;;;;21.46;60.58;96547.03;5073919;28;20126;-80
2021/09/05 07:45:34;;;;;;;7.70;5.00;;;;;;;22.40;58.93;96546.84;5065664;28;20538;-81
2021/09/05 07:48:00;;;;;;;8.43;5.72;;;;;;;22.23;60.04;96550.16;5065790;28;20035;-81
2021/09/05 07:50:26;;;;;;;7.35;4.97;;;;;;;22.03;59.28;96549.53;5057417;28;20021;-80
2021/09/05 07:52:51;;;;;;;8.77;5.68;;;;;;;22.18;59.59;96550.00;5069672;28;20032;-80
2021/09/05 07:55:17;;;;;;;8.82;5.43;;;;;;;22.29;59.59;96549.25;5048937;28;20032;-81
2021/09/05 07:57:43;;;;;;;13.00;5.50;;;;;;;22.55;58.77;96545.41;5065727;28;20446;-80
2021/09/05 08:00:09;;;;;;;8.30;4.60;;;;;;;24.41;53.22;96542.28;5073484;28;20027;-78
2021/09/05 08:02:40;;;;;;;6.88;5.25;;;;;;;24.38;53.36;96549.94;5080411;28;20032;-78
2021/09/05 08:05:08;;;;;;;10.57;5.63;;;;;;;24.55;53.38;96545.50;5072429;28;20060;-77
2021/09/05 08:07:33;;;;;;;7.10;4.82;;;;;;;25.25;49.06;96543.47;5079393;28;20042;-78
2021/09/05 08:09:59;;;;;;;8.73;5.70;;;;;;;23.86;51.97;96548.09;5078792;28;20066;-78
2021/09/05 08:12:25;;;;;;;7.60;4.55;;;;;;;25.00;48.97;96546.53;5074675;28;20104;-78
2021/09/05 08:14:50;;;;;;;7.65;4.88;;;;;;;25.20;50.15;96548.78;5074113;28;20032;-78
2021/09/05 08:17:16;;;;;;;7.18;5.32;;;;;;;26.53;46.28;96549.63;5085445;28;20017;-79
2021/09/05 08:19:42;;;;;;;13.55;11.23;;;;;;;27.16;43.97;96551.84;5072790;28;20025;-79
2021/09/05 08:22:07;;;;;;;8.63;5.05;;;;;;;26.03;46.08;96552.47;5073461;28;20016;-79
2021/09/05 08:24:33;;;;;;;7.25;5.55;;;;;;;27.19;42.97;96557.56;5059442;28;20032;-79
2021/09/05 08:26:58;;;;;;;10.27;6.45;;;;;;;27.35;43.37;96547.69;5058037;28;20028;-79
2021/09/05 08:29:24;;;;;;;7.43;5.13;;;;;;;28.05;42.12;96548.44;5073517;28;20086;-79
2021/09/05 08:31:50;;;;;;;6.75;4.43;;;;;;;27.65;42.76;96554.41;5071138;28;20062;-80
2021/09/05 08:34:16;;;;;;;6.57;4.32;;;;;;;27.03;43.03;96550.38;5060464;28;20056;-80
2021/09/05 08:36:41;;;;;;;9.07;4.68;;;;;;;28.17;40.22;96553.66;5063570;28;20016;-79
2021/09/05 08:39:07;;;;;;;7.43;5.20;;;;;;;28.77;39.40;96548.72;5075727;28;20516;-81
2021/09/05 08:41:33;;;;;;;6.38;4.20;;;;;;;26.62;42.18;96557.25;5070330;28;20080;-80
2021/09/05 08:43:59;;;;;;;7.90;4.97;;;;;;;27.19;40.72;96554.03;5072823;28;20070;-80
2021/09/05 08:46:25;;;;;;;5.63;3.70;;;;;;;28.59;38.17;96550.84;5055864;28;20052;-79
2021/09/05 08:48:51;;;;;;;6.93;4.50;;;;;;;27.59;40.08;96558.13;5080156;28;20025;-78
2021/09/05 08:51:17;;;;;;;8.00;3.90;;;;;;;28.24;39.78;96551.53;5066395;28;20373;-77
2021/09/05 08:53:44;;;;;;;7.30;4.75;;;;;;;26.17;42.59;96563.69;5056495;28;20028;-79
2021/09/05 08:56:10;;;;;;;6.28;4.47;;;;;;;27.01;40.94;96566.00;5073283;28;20024;-78
2021/09/05 08:58:35;;;;;;;10.65;4.80;;;;;;;27.55;40.57;96559.72;5067364;28;20102;-78
2021/09/05 09:01:20;;;;;;;6.82;4.30;;;;;;;27.89;38.51;96558.34;5058648;28;20554;-79
2021/09/05 09:03:46;;;;;;;6.60;3.88;;;;;;;28.75;35.82;96559.81;5066304;28;20039;-80
2021/09/05 09:06:21;;;;;;;6.40;4.22;;;;;;;27.63;40.88;96562.78;5077367;28;20023;-79
2021/09/05 09:09:01;;;;;;;6.45;4.25;;;;;;;28.29;38.93;96569.66;5057435;28;20087;-79
2021/09/05 09:11:26;;;;;;;6.60;3.85;;;;;;;27.55;39.84;96570.53;5055430;28;20059;-79
2021/09/05 09:13:56;;;;;;;7.75;4.03;;;;;;;26.34;39.71;96577.94;5070207;28;20012;-80
2021/09/05 09:16:34;;;;;;;6.18;4.43;;;;;;;27.21;37.78;96570.81;5072735;28;20370;-79
2021/09/05 09:19:00;;;;;;;7.68;5.05;;;;;;;25.82;39.19;96575.63;5058390;28;20037;-80
2021/09/05 09:21:26;;;;;;;8.80;3.92;;;;;;;26.34;38.73;96583.31;5067647;28;20158;-79
2021/09/05 09:23:51;;;;;;;9.23;4.10;;;;;;;27.67;36.86;96572.00;5081039;28;20036;-79
2021/09/05 09:26:17;;;;;;;8.40;4.10;;;;;;;26.95;38.40;96573.22;5075885;28;20121;-79
2021/09/05 09:28:48;;;;;;;6.68;4.30;;;;;;;28.01;36.12;96570.88;5076259;28;20024;-79
2021/09/05 09:31:25;;;;;;;5.78;3.95;;;;;;;27.63;36.73;96573.59;5070488;28;20046;-79
2021/09/05 09:33:54;;;;;;;5.93;4.07;;;;;;;28.17;36.40;96573.38;5058267;28;20036;-80
2021/09/05 09:36:25;;;;;;;5.97;3.75;;;;;;;29.41;34.42;96571.84;5054719;28;20024;-79
2021/09/05 09:38:59;;;;;;;6.60;4.13;;;;;;;28.08;36.32;96576.84;5076102;28;20063;-79
2021/09/05 09:41:29;;;;;;;6.18;4.25;;;;;;;26.56;37.99;96589.56;5058523;28;20099;-79
2021/09/05 09:44:04;;;;;;;6.10;4.15;;;;;;;26.41;37.15;96580.44;5076392;28;20037;-78
2021/09/05 09:46:32;;;;;;;5.55;4.05;;;;;;;26.62;38.00;96576.13;5066713;28;20036;-78
2021/09/05 09:49:03;;;;;;;6.07;4.15;;;;;;;27.40;36.94;96571.25;5062803;28;20416;-78
2021/09/05 09:51:30;;;;;;;6.88;4.38;;;;;;;29.14;33.50;96564.78;5075166;28;20107;-79
2021/09/05 09:53:57;;;;;;;6.22;3.67;;;;;;;26.97;36.51;96576.50;5078202;28;20021;-78
2021/09/05 09:56:24;;;;;;;5.88;3.85;;;;;;;25.85;38.08;96572.41;5078352;28;20059;-77
2021/09/05 09:58:53;;;;;;;6.03;3.83;;;;;;;26.44;37.13;96578.06;5067478;28;20060;-78
2021/09/05 10:01:24;;;;;;;7.07;4.25;;;;;;;26.75;36.55;96578.44;5070501;28;20028;-78
2021/09/05 10:03:53;;;;;;;6.13;3.80;;;;;;;27.32;35.66;96563.59;5063116;28;20122;-78
2021/09/05 10:06:23;;;;;;;5.75;3.70;;;;;;;26.73;37.21;96565.19;5075996;28;20020;-78
2021/09/05 10:08:49;;;;;;;5.72;3.53;;;;;;;27.39;35.61;96572.31;5048431;28;20040;-78
2021/09/05 10:11:17;;;;;;;6.25;3.92;;;;;;;28.48;33.51;96561.91;5068374;28;20074;-79
2021/09/05 10:13:44;;;;;;;5.82;3.78;;;;;;;26.23;36.76;96581.56;5047083;28;20482;-79
2021/09/05 10:16:11;;;;;;;6.47;3.80;;;;;;;26.70;34.91;96573.81;5068410;28;20035;-79
2021/09/05 10:18:46;;;;;;;5.60;3.40;;;;;;;28.71;32.76;96561.44;5062202;28;20029;-79
2021/09/05 10:21:18;;;;;;;8.02;3.83;;;;;;;27.21;35.29;96565.41;5076887;28;20028;-79
2021/09/05 10:23:50;;;;;;;9.45;4.00;;;;;;;27.73;33.22;96564.72;5083306;28;20038;-79
2021/09/05 10:26:16;;;;;;;6.20;3.90;;;;;;;27.91;34.60;96566.22;5069299;28;20032;-79
2021/09/05 10:28:49;;;;;;;6.88;3.75;;;;;;;28.21;32.46;96565.56;5068658;28;20051;-79
2021/09/05 10:31:24;;;;;;;7.25;3.70;;;;;;;27.68;33.83;96564.69;5074558;28;20032;-80
2021/09/05 10:33:50;;;;;;;6.60;3.38;;;;;;;27.73;34.01;96570.09;5071528;28;20602;-79
2021/09/05 10:36:21;;;;;;;6.03;3.85;;;;;;;27.54;33.42;96568.91;5057947;28;20021;-79
2021/09/05 10:38:47;;;;;;;4.80;3.10;;;;;;;27.25;32.71;96569.22;5061531;28;20068;-79
2021/09/05 10:41:45;;;;;;;6.78;3.80;;;;;;;26.89;32.84;96574.25;5057027;28;20727;-79
2021/09/05 10:44:11;;;;;;;5.43;3.40;;;;;;;27.07;33.51;96564.19;5080639;28;20028;-79
2021/09/05 10:46:48;;;;;;;6.95;3.67;;;;;;;26.75;33.80;96567.63;5072538;28;20115;-79
2021/09/05 10:49:15;;;;;;;5.00;3.13;;;;;;;26.01;34.05;96568.88;5069620;28;20096;-80
2021/09/05 10:51:50;;;;;;;5.07;3.45;;;;;;;25.79;34.41;96574.22;5060065;28;20700;-80
2021/09/05 10:54:23;;;;;;;8.43;3.92;;;;;;;26.89;34.15;96571.53;5060622;28;20120;-80
2021/09/05 10:56:49;;;;;;;6.05;3.40;;;;;;;27.02;34.24;96567.63;5085063;28;20048;-80
2021/09/05 10:59:21;;;;;;;5.20;3.60;;;;;;;25.61;36.71;96580.66;5076999;28;20379;-80
2021/09/05 11:01:47;;;;;;;6.22;3.95;;;;;;;25.39;36.69;96571.72;5077287;28;20025;-80
2021/09/05 11:04:15;;;;;;;5.75;3.58;;;;;;;26.20;36.09;96571.28;5055231;28;20047;-80
2021/09/05 11:06:47;;;;;;;5.78;3.65;;;;;;;26.67;34.27;96577.00;5075426;28;20036;-80
2021/09/05 11:12:08;;;;;;;6.57;4.18;;;;;;;24.96;37.68;96570.44;5085961;28;20503;-80
2021/09/05 11:14:35;;;;;;;5.65;3.33;;;;;;;26.08;35.65;96568.69;5081605;28;20755;-80
2021/09/05 11:17:08;;;;;;;5.43;3.92;;;;;;;26.14;35.05;96570.41;5060424;28;20025;-80
2021/09/05 11:19:47;;;;;;;6.43;4.00;;;;;;;26.67;34.31;96570.78;5074999;28;20470;-80
2021/09/05 11:22:19;;;;;;;5.95;3.80;;;;;;;27.85;31.86;96561.84;5059219;28;20115;-80
2021/09/05 11:24:46;;;;;;;6.47;3.85;;;;;;;27.72;31.61;96563.09;5084007;28;20039;-80
2021/09/05 11:27:15;;;;;;;9.10;3.53;;;;;;;28.80;31.62;96569.84;5079694;28;20032;-80
2021/09/05 11:29:47;;;;;;;6.97;3.80;;;;;;;27.38;33.12;96573.38;5082177;28;20029;-80
2021/09/05 11:32:16;;;;;;;6.47;3.92;;;;;;;26.04;34.93;96575.66;5070039;28;20035;-80
2021/09/05 11:34:55;;;;;;;7.75;3.72;;;;;;;26.41;34.98;96570.47;5082686;28;20100;-80
2021/09/05 11:37:33;;;;;;;5.82;3.78;;;;;;;25.12;37.46;96582.31;5087953;28;20028;-80
2021/09/05 11:40:17;;;;;;;5.90;3.63;;;;;;;25.51;35.81;96580.50;5065735;28;20040;-79
2021/09/05 11:42:46;;;;;;;6.35;3.80;;;;;;;26.38;33.92;96573.66;5059580;28;20028;-79
2021/09/05 11:45:16;;;;;;;6.43;3.80;;;;;;;28.24;32.36;96567.75;5074609;28;20108;-80
2021/09/05 11:47:43;;;;;;;10.38;6.85;;;;;;;27.96;33.10;96564.34;5073496;28;20540;-81